Time;durP1;ratioP1;P1;durP2;ratioP2;P2;SDS_P1;SDS_P2;PMS_P1;PMS_P2;Temp;Humidity;BMP_temperature;BMP_pressure;BME280_temperature;BME280_humidity;BME280_pressure;Samples;Min_cycle;Max_cycle;Signal;HPM_P1;HPM_P2
2022/04/28 00:01:47;;;;;;;6.53;2.92;;;;;;;13.03;71.96;100949.25;18435997;32;20092;-64
2022/04/28 00:11:51;;;;;;;5.82;2.50;;;;;;;13.10;71.49;100944.84;18436185;32;20101;-64
2022/04/28 00:21:55;;;;;;;6.80;2.70;;;;;;;12.96;72.07;100931.81;18436816;32;20089;-64
2022/04/28 00:31:58;;;;;;;4.47;2.00;;;;;;;12.75;72.41;100926.62;18421171;32;20119;-64
2022/04/28 00:42:08;;;;;;;6.78;2.37;;;;;;;13.15;70.44;100930.00;18435308;32;20093;-64
2022/04/28 00:52:11;;;;;;;6.55;2.60;;;;;;;13.01;71.56;100930.91;18428662;32;20104;-64
2022/04/28 01:02:18;;;;;;;4.32;2.05;;;;;;;13.36;70.21;100942.09;18433305;32;20107;-64
2022/04/28 01:12:23;;;;;;;5.55;2.35;;;;;;;13.14;71.15;100939.59;18434010;32;20397;-64
2022/04/28 01:22:29;;;;;;;4.47;2.00;;;;;;;13.06;71.86;100930.88;18434106;32;20092;-64
2022/04/28 01:32:32;;;;;;;5.87;2.30;;;;;;;12.94;72.16;100915.22;18433840;32;20097;-64
2022/04/28 01:42:36;;;;;;;4.87;1.80;;;;;;;12.76;73.60;100912.66;18433497;32;20358;-64
2022/04/28 02:03:02;;;;;;;5.60;2.37;;;;;;;12.88;72.07;100906.50;18432737;32;20111;-64
2022/04/28 02:13:06;;;;;;;4.45;2.00;;;;;;;12.73;70.18;100917.03;18432380;32;20117;-64
2022/04/28 02:23:10;;;;;;;5.60;2.40;;;;;;;12.94;69.61;100909.97;18432279;32;20433;-64
2022/04/28 02:33:13;;;;;;;6.22;2.33;;;;;;;12.97;69.03;100912.56;18425926;32;20174;-64
2022/04/28 02:43:19;;;;;;;3.60;1.90;;;;;;;12.96;69.00;100908.22;18431464;32;20100;-64
2022/04/28 02:53:22;;;;;;;4.35;2.25;;;;;;;12.78;70.03;100910.03;18430894;32;20112;-64
2022/04/28 03:03:26;;;;;;;4.90;2.22;;;;;;;12.74;69.73;100903.91;18430624;32;20146;-65
2022/04/28 03:13:32;;;;;;;6.85;2.17;;;;;;;12.71;69.83;100908.28;18431626;32;20097;-64
2022/04/28 03:23:37;;;;;;;5.95;2.10;;;;;;;12.71;69.49;100909.19;18429721;32;20085;-64
2022/04/28 03:33:40;;;;;;;5.90;2.60;;;;;;;12.81;67.84;100920.50;18435889;32;20115;-64
2022/04/28 03:43:44;;;;;;;4.93;1.92;;;;;;;12.65;66.97;100922.28;18438094;32;20069;-65
2022/04/28 03:53:48;;;;;;;6.62;2.45;;;;;;;12.54;66.19;100927.56;18436615;32;20104;-65
2022/04/28 04:03:53;;;;;;;6.20;2.67;;;;;;;12.68;66.03;100937.12;18410699;32;20097;-65
2022/04/28 04:13:56;;;;;;;5.15;2.40;;;;;;;12.77;65.97;100937.97;18367848;32;20395;-65
2022/04/28 04:24:00;;;;;;;6.32;2.85;;;;;;;12.83;67.50;100942.34;18368960;32;20101;-65
2022/04/28 04:34:03;;;;;;;4.90;2.60;;;;;;;13.17;66.74;100943.97;18370109;32;20086;-65
2022/04/28 04:44:13;;;;;;;4.85;2.12;;;;;;;13.09;68.65;100950.97;18370066;32;20101;-65
2022/04/28 04:54:16;;;;;;;4.37;2.17;;;;;;;13.36;68.09;100949.13;18349909;32;20089;-65
2022/04/28 05:04:20;;;;;;;4.87;2.05;;;;;;;13.64;67.48;100947.22;18394860;32;20351;-64
2022/04/28 05:14:24;;;;;;;13.10;6.15;;;;;;;14.36;63.21;100957.22;18435401;32;20154;-64
2022/04/28 05:24:28;;;;;;;5.78;2.12;;;;;;;14.54;60.13;100967.53;18433961;32;20097;-65
2022/04/28 05:34:31;;;;;;;5.40;2.22;;;;;;;14.60;60.06;100971.88;18433966;32;20120;-64
2022/04/28 05:54:57;;;;;;;4.57;2.03;;;;;;;14.84;58.79;100997.06;18432313;32;20373;-65
2022/04/28 06:05:02;;;;;;;6.72;2.20;;;;;;;14.89;58.34;101002.25;18417931;32;20122;-64
2022/04/28 06:15:07;;;;;;;5.03;2.00;;;;;;;14.74;56.97;100995.41;18426948;32;20450;-64
2022/04/28 06:25:11;;;;;;;5.00;2.22;;;;;;;14.86;56.03;101002.31;18418406;32;20097;-64
2022/04/28 06:35:15;;;;;;;6.37;2.30;;;;;;;14.97;54.09;101010.94;18432445;32;20108;-64
2022/04/28 06:45:19;;;;;;;4.82;2.15;;;;;;;15.06;53.40;101012.59;18431460;32;20097;-64
2022/04/28 06:55:30;;;;;;;4.80;2.22;;;;;;;15.44;52.52;101014.78;18399569;32;20116;-68
2022/04/28 07:05:47;;;;;;;;;;;;;;;15.72;51.47;101014.41;18364497;32;20097;-66
2022/04/28 07:15:59;;;;;;;3.45;1.83;;;;;;;16.13;50.86;101014.75;18381225;32;19997;-64
2022/04/28 07:26:04;;;;;;;3.83;1.92;;;;;;;16.47;49.51;101012.41;18428230;32;20085;-64
2022/04/28 07:36:07;;;;;;;3.47;1.73;;;;;;;16.86;47.90;101018.78;18427099;32;20112;-64
2022/04/28 07:46:12;;;;;;;5.47;2.20;;;;;;;17.88;46.24;101032.56;18427432;32;20116;-64
2022/04/28 07:56:17;;;;;;;4.95;2.10;;;;;;;18.28;45.70;101022.88;18413377;32;20111;-64
2022/04/28 08:06:22;;;;;;;5.53;2.40;;;;;;;17.93;43.40;101036.87;18368671;32;20093;-64
2022/04/28 08:16:25;;;;;;;3.53;1.77;;;;;;;18.49;42.86;101048.78;18366941;32;20111;-64
2022/04/28 08:26:30;;;;;;;4.22;1.75;;;;;;;19.20;41.41;101038.13;18371148;32;20438;-64
2022/04/28 08:36:33;;;;;;;3.75;1.95;;;;;;;18.91;43.11;101047.72;18356319;32;20097;-64
2022/04/28 08:46:53;;;;;;;3.58;1.90;;;;;;;19.57;41.83;101049.47;18370408;32;20098;-65
2022/04/28 08:56:58;;;;;;;4.93;2.00;;;;;;;20.38;41.69;101051.38;18370841;32;20179;-65
2022/04/28 09:07:06;;;;;;;5.07;1.77;;;;;;;21.21;38.31;101044.13;18352436;32;20425;-65
2022/04/28 09:17:10;;;;;;;4.43;1.60;;;;;;;21.13;38.74;101048.00;18333321;32;20366;-65
2022/04/28 09:27:15;;;;;;;2.95;1.67;;;;;;;21.32;38.29;101054.37;18368786;32;20117;-65
2022/04/28 09:37:20;;;;;;;6.62;2.42;;;;;;;21.94;37.61;101055.62;18355336;32;20080;-65
2022/04/28 09:47:26;;;;;;;2.67;1.40;;;;;;;22.86;37.09;101048.31;18369079;32;20094;-66
2022/04/28 09:57:30;;;;;;;3.25;1.37;;;;;;;23.31;32.10;101050.81;18354688;32;20629;-65
2022/04/28 10:07:36;;;;;;;4.75;1.87;;;;;;;22.22;34.96;101059.81;18304866;32;20108;-65
2022/04/28 10:17:43;;;;;;;4.95;1.77;;;;;;;21.95;34.83;101062.66;18290399;32;20113;-65
2022/04/28 10:38:15;;;;;;;3.50;1.55;;;;;;;21.57;33.79;101058.75;18303855;32;20123;-66
2022/04/28 10:48:25;;;;;;;3.40;1.45;;;;;;;22.47;33.21;101054.34;18322871;32;20089;-65
2022/04/28 10:58:28;;;;;;;3.62;1.58;;;;;;;22.69;30.38;101050.84;18372120;32;20093;-65
2022/04/28 11:08:36;;;;;;;3.80;1.58;;;;;;;21.38;31.52;101063.00;18430431;32;20124;-65
2022/04/28 11:18:40;;;;;;;3.17;1.33;;;;;;;21.12;34.51;101073.66;18429547;32;20148;-65
2022/04/28 11:28:45;;;;;;;2.30;1.40;;;;;;;20.97;34.75;101084.84;18428823;32;20097;-65
2022/04/28 11:38:50;;;;;;;2.72;1.60;;;;;;;20.78;36.47;101094.25;18408002;32;20430;-65
2022/04/28 11:48:55;;;;;;;3.70;2.00;;;;;;;20.56;37.48;101094.09;18416209;32;20084;-64
2022/04/28 11:59:05;;;;;;;4.43;1.70;;;;;;;20.42;37.46;101102.50;18436383;32;20113;-65
2022/04/28 12:19:31;;;;;;;3.62;1.70;;;;;;;20.61;37.30;101094.84;18436042;32;20088;-65
2022/04/28 12:29:52;;;;;;;4.55;1.80;;;;;;;20.98;36.77;101103.34;18422551;32;20373;-64
2022/04/28 12:39:59;;;;;;;4.60;1.97;;;;;;;21.01;36.11;101110.34;18435366;32;20089;-65
2022/04/28 12:50:19;;;;;;;5.30;1.77;;;;;;;20.22;37.22;101100.53;18421045;32;20181;-65
2022/04/28 13:00:22;;;;;;;3.05;1.65;;;;;;;20.91;36.34;101092.09;18434225;32;20099;-65
2022/04/28 13:10:27;;;;;;;2.33;1.58;;;;;;;21.12;36.30;101096.72;18434800;32;20104;-65
2022/04/28 13:20:31;;;;;;;4.95;1.95;;;;;;;21.32;34.91;101095.97;18435290;32;20407;-65
2022/04/28 13:30:36;;;;;;;4.18;1.70;;;;;;;21.87;34.23;101102.84;18421218;32;20639;-65
2022/04/28 13:40:39;;;;;;;3.78;1.67;;;;;;;22.43;31.98;101085.56;18433410;32;20141;-65
2022/04/28 13:50:44;;;;;;;3.30;1.70;;;;;;;22.31;33.34;101092.25;18433610;32;20107;-65
2022/04/28 14:00:50;;;;;;;4.87;1.90;;;;;;;22.13;33.54;101077.03;18432967;32;20090;-65
2022/04/28 14:10:59;;;;;;;2.97;1.60;;;;;;;21.68;32.73;101082.28;18432176;32;20093;-65
2022/04/28 14:21:03;;;;;;;3.87;1.65;;;;;;;21.56;33.80;101072.94;18418279;32;20146;-65
2022/04/28 14:31:07;;;;;;;2.87;1.40;;;;;;;21.64;36.12;101080.66;18432364;32;20111;-65
2022/04/28 14:41:31;;;;;;;2.78;1.50;;;;;;;21.86;34.06;101082.50;18432516;32;20107;-65
2022/04/28 15:01:56;;;;;;;6.22;2.20;;;;;;;21.30;36.83;101076.59;18428974;32;20123;-65
2022/04/28 15:12:02;;;;;;;5.25;2.20;;;;;;;20.90;38.13;101082.41;18425783;32;20112;-65
2022/04/28 15:22:06;;;;;;;7.37;1.80;;;;;;;20.93;38.60;101095.56;18411224;32;20179;-65
2022/04/28 15:32:11;;;;;;;4.00;1.98;;;;;;;21.14;38.51;101093.06;18425071;32;20123;-65
2022/04/28 15:42:14;;;;;;;3.58;1.70;;;;;;;21.02;37.59;101085.53;18424776;32;20759;-65
2022/04/28 15:52:19;;;;;;;3.70;1.85;;;;;;;21.04;37.77;101095.19;18424253;32;20109;-65
2022/04/28 16:02:23;;;;;;;5.03;2.12;;;;;;;20.90;38.57;101098.31;18422824;32;74901;-65
2022/04/28 16:12:28;;;;;;;3.70;1.83;;;;;;;20.81;38.66;101106.56;18427268;32;20553;-65
2022/04/28 16:22:31;;;;;;;5.07;1.95;;;;;;;20.69;39.07;101110.47;18426651;32;20089;-65
2022/04/28 16:32:36;;;;;;;17.62;7.62;;;;;;;20.34;40.31;101116.03;18426738;32;20118;-65
2022/04/28 16:42:39;;;;;;;4.97;2.03;;;;;;;20.14;40.88;101113.16;18436286;32;20092;-65
2022/04/28 16:52:44;;;;;;;6.72;2.47;;;;;;;20.03;41.97;101135.53;18435156;32;20109;-65
2022/04/28 17:13:09;;;;;;;6.12;2.33;;;;;;;19.47;42.53;101153.00;18434648;32;20532;-65
2022/04/28 17:23:13;;;;;;;6.47;2.62;;;;;;;19.31;45.18;101151.66;18434401;32;20401;-65
2022/04/28 17:33:17;;;;;;;4.35;2.03;;;;;;;18.77;43.74;101177.66;18420899;32;20115;-65
2022/04/28 17:43:20;;;;;;;5.87;2.10;;;;;;;18.46;47.68;101199.53;18433455;32;20097;-65
2022/04/28 17:53:27;;;;;;;6.43;2.20;;;;;;;18.59;47.60;101219.53;18432420;32;20085;-65
2022/04/28 18:03:30;;;;;;;3.87;2.08;;;;;;;18.29;47.92;101233.37;18418374;32;20457;-65
2022/04/28 18:13:35;;;;;;;5.65;2.33;;;;;;;18.32;46.35;101243.03;18418489;32;20092;-65
2022/04/28 18:23:39;;;;;;;9.88;3.95;;;;;;;18.04;49.49;101264.72;18418082;32;20105;-65
2022/04/28 18:33:43;;;;;;;11.80;5.00;;;;;;;17.67;51.29;101276.78;18418129;32;20111;-65
2022/04/28 18:54:09;;;;;;;10.82;4.15;;;;;;;17.31;54.15;101313.47;18417323;32;20145;-65
2022/04/28 19:04:12;;;;;;;7.50;3.47;;;;;;;17.11;55.57;101329.63;18417082;32;20441;-65
2022/04/28 19:24:40;;;;;;;12.40;5.68;;;;;;;16.19;58.47;101354.44;18415838;32;20132;-64
2022/04/28 19:34:46;;;;;;;12.48;5.25;;;;;;;16.11;57.84;101364.19;18415429;32;20111;-65
2022/04/28 19:44:50;;;;;;;14.10;5.15;;;;;;;16.01;58.57;101360.75;18428569;32;20096;-65
2022/04/28 19:54:54;;;;;;;10.05;5.37;;;;;;;15.87;57.83;101382.78;18413885;32;20119;-65
2022/04/28 20:04:58;;;;;;;10.57;4.28;;;;;;;16.02;53.84;101386.19;18413291;32;20104;-64
2022/04/28 20:15:03;;;;;;;8.27;3.87;;;;;;;15.97;53.08;101398.56;18421187;32;20096;-64
2022/04/28 20:25:11;;;;;;;6.53;2.78;;;;;;;15.97;52.27;101401.19;18436313;32;20098;-65
2022/04/28 20:35:17;;;;;;;6.68;3.08;;;;;;;15.73;49.86;101406.59;18422049;32;20097;-64
2022/04/28 20:45:21;;;;;;;4.62;2.50;;;;;;;15.78;48.41;101403.94;18422160;32;20358;-64
2022/04/28 20:55:26;;;;;;;9.13;3.20;;;;;;;15.50;51.02;101426.03;18435175;32;20093;-64
2022/04/28 21:05:32;;;;;;;7.20;2.70;;;;;;;15.30;54.00;101438.44;18434738;32;20400;-64
2022/04/28 21:15:37;;;;;;;6.75;2.65;;;;;;;15.17;50.44;101451.66;18420376;32;20101;-64
2022/04/28 21:25:45;;;;;;;7.62;3.00;;;;;;;14.92;54.82;101461.41;18433543;32;20101;-65
2022/04/28 21:35:49;;;;;;;6.53;2.80;;;;;;;14.62;57.02;101463.22;18433935;32;20115;-64
2022/04/28 21:45:53;;;;;;;7.93;3.45;;;;;;;14.49;56.71;101472.88;18419228;32;20125;-64
2022/04/28 21:55:58;;;;;;;8.70;3.35;;;;;;;14.30;57.48;101465.00;18433481;32;20086;-64
2022/04/28 22:16:25;;;;;;;9.07;3.75;;;;;;;13.86;58.76;101470.22;18432661;32;20088;-64
2022/04/28 22:26:29;;;;;;;16.10;5.18;;;;;;;13.67;58.72;101484.19;18432537;32;20095;-64
2022/04/28 22:36:35;;;;;;;11.23;3.92;;;;;;;13.62;59.31;101485.94;18432572;32;20150;-64
2022/04/28 22:46:39;;;;;;;7.03;3.20;;;;;;;13.41;61.01;101487.56;18432002;32;20476;-64
2022/04/28 22:56:44;;;;;;;9.85;3.62;;;;;;;13.11;60.66;101490.09;18432718;32;20134;-64
2022/04/28 23:06:48;;;;;;;7.47;3.17;;;;;;;13.14;60.47;101484.00;18430563;32;20195;-64
2022/04/28 23:16:52;;;;;;;7.40;3.08;;;;;;;12.83;61.92;101482.09;18430876;32;20111;-64
2022/04/28 23:26:58;;;;;;;4.95;2.72;;;;;;;13.09;60.42;101483.09;18430386;32;20441;-64
2022/04/28 23:47:25;;;;;;;5.45;2.75;;;;;;;12.76;56.51;101485.53;18434276;32;20104;-64
2022/04/28 23:57:31;;;;;;;7.45;3.03;;;;;;;12.53;58.02;101485.38;18436778;32;20104;-64
